sensor_id;sensor_type;location;lat;lon;timestamp;P1;durP1;ratioP1;P2;durP2;ratioP2
9940;SDS011;5009;50.656;7.188;2023-12-04T05:02:42;16.27;;;11.83;;
9940;SDS011;5009;50.656;7.188;2023-12-04T05:05:07;14.97;;;12.30;;
9940;SDS011;5009;50.656;7.188;2023-12-04T05:07:33;17.10;;;12.40;;
9940;SDS011;5009;50.656;7.188;2023-12-04T05:09:59;16.77;;;13.07;;
9940;SDS011;5009;50.656;7.188;2023-12-04T05:12:24;14.30;;;12.23;;
9940;SDS011;5009;50.656;7.188;2023-12-04T05:14:50;14.30;;;12.07;;
9940;SDS011;5009;50.656;7.188;2023-12-04T05:17:15;17.47;;;13.23;;
9940;SDS011;5009;50.656;7.188;2023-12-04T05:19:41;16.97;;;12.10;;
9940;SDS011;5009;50.656;7.188;2023-12-04T05:22:08;16.57;;;12.93;;
9940;SDS011;5009;50.656;7.188;2023-12-04T05:24:33;15.43;;;12.20;;
9940;SDS011;5009;50.656;7.188;2023-12-04T05:27:00;16.07;;;12.63;;
9940;SDS011;5009;50.656;7.188;2023-12-04T05:29:27;15.83;;;12.63;;
9940;SDS011;5009;50.656;7.188;2023-12-04T05:31:52;16.13;;;13.03;;
9940;SDS011;5009;50.656;7.188;2023-12-04T05:34:18;17.23;;;13.43;;
9940;SDS011;5009;50.656;7.188;2023-12-04T05:36:44;16.87;;;13.03;;
9940;SDS011;5009;50.656;7.188;2023-12-04T05:39:09;16.20;;;12.60;;
9940;SDS011;5009;50.656;7.188;2023-12-04T05:41:35;16.83;;;12.80;;
9940;SDS011;5009;50.656;7.188;2023-12-04T05:44:00;17.37;;;13.47;;
9940;SDS011;5009;50.656;7.188;2023-12-04T05:46:26;16.10;;;12.90;;
9940;SDS011;5009;50.656;7.188;2023-12-04T05:48:53;18.67;;;13.20;;
9940;SDS011;5009;50.656;7.188;2023-12-04T05:51:18;18.50;;;14.33;;
9940;SDS011;5009;50.656;7.188;2023-12-04T05:53:44;16.70;;;12.90;;
9940;SDS011;5009;50.656;7.188;2023-12-04T05:56:10;18.10;;;13.33;;
9940;SDS011;5009;50.656;7.188;2023-12-04T05:58:35;15.40;;;12.37;;
9940;SDS011;5009;50.656;7.188;2023-12-04T06:01:01;17.03;;;13.23;;
9940;SDS011;5009;50.656;7.188;2023-12-04T06:03:27;16.23;;;13.60;;
9940;SDS011;5009;50.656;7.188;2023-12-04T06:05:53;17.77;;;13.40;;
9940;SDS011;5009;50.656;7.188;2023-12-04T06:08:18;17.17;;;12.83;;
9940;SDS011;5009;50.656;7.188;2023-12-04T06:10:44;15.53;;;13.13;;
9940;SDS011;5009;50.656;7.188;2023-12-04T06:13:10;18.27;;;13.30;;
9940;SDS011;5009;50.656;7.188;2023-12-04T06:15:36;18.50;;;12.67;;
9940;SDS011;5009;50.656;7.188;2023-12-04T06:18:01;18.60;;;14.03;;
9940;SDS011;5009;50.656;7.188;2023-12-04T06:20:27;14.63;;;12.10;;
9940;SDS011;5009;50.656;7.188;2023-12-04T06:22:53;14.77;;;12.17;;
9940;SDS011;5009;50.656;7.188;2023-12-04T06:25:18;14.30;;;11.87;;
9940;SDS011;5009;50.656;7.188;2023-12-04T06:27:44;14.33;;;11.63;;
9940;SDS011;5009;50.656;7.188;2023-12-04T06:30:10;15.07;;;12.30;;
9940;SDS011;5009;50.656;7.188;2023-12-04T06:32:37;14.40;;;11.70;;
9940;SDS011;5009;50.656;7.188;2023-12-04T06:35:03;13.37;;;10.83;;
9940;SDS011;5009;50.656;7.188;2023-12-04T06:37:29;13.13;;;10.70;;
9940;SDS011;5009;50.656;7.188;2023-12-04T06:39:56;15.20;;;10.97;;
9940;SDS011;5009;50.656;7.188;2023-12-04T06:42:41;15.73;;;12.27;;
9940;SDS011;5009;50.656;7.188;2023-12-04T06:45:07;14.23;;;11.90;;
9940;SDS011;5009;50.656;7.188;2023-12-04T06:47:33;13.20;;;10.63;;
9940;SDS011;5009;50.656;7.188;2023-12-04T06:49:59;14.73;;;11.70;;
9940;SDS011;5009;50.656;7.188;2023-12-04T06:52:25;12.73;;;10.90;;
9940;SDS011;5009;50.656;7.188;2023-12-04T06:54:50;14.30;;;11.10;;
9940;SDS011;5009;50.656;7.188;2023-12-04T06:57:16;15.57;;;11.97;;
9940;SDS011;5009;50.656;7.188;2023-12-04T06:59:42;13.73;;;10.90;;
9940;SDS011;5009;50.656;7.188;2023-12-04T07:02:41;13.23;;;11.20;;
9940;SDS011;5009;50.656;7.188;2023-12-04T07:05:06;14.10;;;11.60;;
9940;SDS011;5009;50.656;7.188;2023-12-04T07:07:32;14.30;;;11.13;;
9940;SDS011;5009;50.656;7.188;2023-12-04T07:09:58;14.10;;;11.47;;
9940;SDS011;5009;50.656;7.188;2023-12-04T07:12:24;15.13;;;12.10;;
9940;SDS011;5009;50.656;7.188;2023-12-04T07:14:49;14.07;;;11.47;;
9940;SDS011;5009;50.656;7.188;2023-12-04T07:17:15;15.53;;;12.60;;
9940;SDS011;5009;50.656;7.188;2023-12-04T07:19:41;14.13;;;11.83;;
9940;SDS011;5009;50.656;7.188;2023-12-04T07:22:07;16.30;;;12.27;;
9940;SDS011;5009;50.656;7.188;2023-12-04T07:24:32;16.60;;;12.33;;
9940;SDS011;5009;50.656;7.188;2023-12-04T07:26:58;15.00;;;11.97;;
9940;SDS011;5009;50.656;7.188;2023-12-04T07:29:24;12.30;;;10.57;;
9940;SDS011;5009;50.656;7.188;2023-12-04T07:33:43;15.83;;;11.37;;
9940;SDS011;5009;50.656;7.188;2023-12-04T07:36:09;15.30;;;11.60;;
9940;SDS011;5009;50.656;7.188;2023-12-04T07:38:35;14.80;;;11.77;;
9940;SDS011;5009;50.656;7.188;2023-12-04T07:41:01;14.20;;;11.47;;
9940;SDS011;5009;50.656;7.188;2023-12-04T07:43:26;16.43;;;10.90;;
9940;SDS011;5009;50.656;7.188;2023-12-04T07:45:52;13.73;;;11.83;;
9940;SDS011;5009;50.656;7.188;2023-12-04T07:48:20;14.00;;;10.97;;
9940;SDS011;5009;50.656;7.188;2023-12-04T07:50:45;16.43;;;11.20;;
9940;SDS011;5009;50.656;7.188;2023-12-04T07:53:11;13.23;;;10.50;;
9940;SDS011;5009;50.656;7.188;2023-12-04T07:55:37;15.07;;;11.67;;
9940;SDS011;5009;50.656;7.188;2023-12-04T07:58:02;14.70;;;11.50;;
9940;SDS011;5009;50.656;7.188;2023-12-04T08:00:28;14.30;;;10.73;;
9940;SDS011;5009;50.656;7.188;2023-12-04T08:02:53;15.23;;;10.77;;
9940;SDS011;5009;50.656;7.188;2023-12-04T08:05:19;13.13;;;10.87;;
9940;SDS011;5009;50.656;7.188;2023-12-04T08:07:44;14.07;;;10.80;;
9940;SDS011;5009;50.656;7.188;2023-12-04T08:10:10;14.37;;;10.83;;
9940;SDS011;5009;50.656;7.188;2023-12-04T08:12:36;16.10;;;10.90;;
9940;SDS011;5009;50.656;7.188;2023-12-04T08:15:02;13.97;;;10.90;;
9940;SDS011;5009;50.656;7.188;2023-12-04T08:17:28;13.70;;;11.53;;
9940;SDS011;5009;50.656;7.188;2023-12-04T08:19:54;14.47;;;11.10;;
9940;SDS011;5009;50.656;7.188;2023-12-04T08:22:20;11.97;;;10.00;;
9940;SDS011;5009;50.656;7.188;2023-12-04T08:24:45;13.13;;;10.87;;
9940;SDS011;5009;50.656;7.188;2023-12-04T08:27:11;14.47;;;11.00;;
9940;SDS011;5009;50.656;7.188;2023-12-04T08:29:38;12.97;;;10.23;;
9940;SDS011;5009;50.656;7.188;2023-12-04T08:32:04;13.60;;;10.77;;
9940;SDS011;5009;50.656;7.188;2023-12-04T08:34:30;13.27;;;10.37;;
9940;SDS011;5009;50.656;7.188;2023-12-04T08:36:56;13.43;;;10.83;;
9940;SDS011;5009;50.656;7.188;2023-12-04T08:39:22;11.57;;;9.63;;
9940;SDS011;5009;50.656;7.188;2023-12-04T08:41:47;12.73;;;9.53;;
9940;SDS011;5009;50.656;7.188;2023-12-04T08:44:13;12.90;;;10.23;;
9940;SDS011;5009;50.656;7.188;2023-12-04T08:46:39;13.70;;;10.47;;
9940;SDS011;5009;50.656;7.188;2023-12-04T08:49:05;12.20;;;9.97;;
9940;SDS011;5009;50.656;7.188;2023-12-04T08:51:30;12.90;;;10.20;;
9940;SDS011;5009;50.656;7.188;2023-12-04T08:53:56;13.60;;;10.73;;
9940;SDS011;5009;50.656;7.188;2023-12-04T08:56:22;14.53;;;10.50;;
9940;SDS011;5009;50.656;7.188;2023-12-04T08:58:48;12.23;;;9.97;;
9940;SDS011;5009;50.656;7.188;2023-12-04T09:01:15;13.67;;;9.97;;
9940;SDS011;5009;50.656;7.188;2023-12-04T09:03:40;12.07;;;10.10;;
9940;SDS011;5009;50.656;7.188;2023-12-04T09:06:06;12.53;;;10.00;;
9940;SDS011;5009;50.656;7.188;2023-12-04T09:08:32;12.00;;;9.67;;
9940;SDS011;5009;50.656;7.188;2023-12-04T09:10:57;12.53;;;10.20;;
9940;SDS011;5009;50.656;7.188;2023-12-04T09:13:23;13.47;;;10.10;;
9940;SDS011;5009;50.656;7.188;2023-12-04T09:15:49;14.07;;;10.13;;
9940;SDS011;5009;50.656;7.188;2023-12-04T09:18:14;12.27;;;10.10;;
9940;SDS011;5009;50.656;7.188;2023-12-04T09:20:40;12.20;;;9.10;;
9940;SDS011;5009;50.656;7.188;2023-12-04T09:23:06;11.37;;;9.63;;
9940;SDS011;5009;50.656;7.188;2023-12-04T09:25:32;14.93;;;9.90;;
9940;SDS011;5009;50.656;7.188;2023-12-04T09:27:58;11.50;;;9.53;;
9940;SDS011;5009;50.656;7.188;2023-12-04T09:30:23;12.47;;;9.67;;
9940;SDS011;5009;50.656;7.188;2023-12-04T09:32:50;13.20;;;10.37;;
9940;SDS011;5009;50.656;7.188;2023-12-04T09:35:16;12.33;;;10.20;;
9940;SDS011;5009;50.656;7.188;2023-12-04T09:37:41;11.13;;;9.57;;
9940;SDS011;5009;50.656;7.188;2023-12-04T09:40:07;13.30;;;9.67;;
9940;SDS011;5009;50.656;7.188;2023-12-04T09:42:33;11.57;;;9.20;;
9940;SDS011;5009;50.656;7.188;2023-12-04T09:44:59;12.53;;;9.77;;
9940;SDS011;5009;50.656;7.188;2023-12-04T09:47:26;11.10;;;9.77;;
9940;SDS011;5009;50.656;7.188;2023-12-04T09:49:52;14.70;;;9.60;;
9940;SDS011;5009;50.656;7.188;2023-12-04T09:52:19;11.10;;;9.50;;
9940;SDS011;5009;50.656;7.188;2023-12-04T09:54:45;12.13;;;9.63;;
9940;SDS011;5009;50.656;7.188;2023-12-04T09:57:11;11.00;;;9.23;;
9940;SDS011;5009;50.656;7.188;2023-12-04T09:59:38;11.83;;;9.27;;
9940;SDS011;5009;50.656;7.188;2023-12-04T10:02:04;11.57;;;9.30;;
9940;SDS011;5009;50.656;7.188;2023-12-04T10:04:32;12.17;;;9.67;;
9940;SDS011;5009;50.656;7.188;2023-12-04T10:06:59;11.60;;;9.67;;
9940;SDS011;5009;50.656;7.188;2023-12-04T10:09:24;12.57;;;9.30;;
9940;SDS011;5009;50.656;7.188;2023-12-04T10:11:50;11.17;;;8.97;;
9940;SDS011;5009;50.656;7.188;2023-12-04T10:14:19;14.73;;;9.03;;
9940;SDS011;5009;50.656;7.188;2023-12-04T10:16:45;11.60;;;9.63;;
9940;SDS011;5009;50.656;7.188;2023-12-04T10:21:41;10.87;;;9.30;;
9940;SDS011;5009;50.656;7.188;2023-12-04T10:24:07;12.37;;;9.27;;
9940;SDS011;5009;50.656;7.188;2023-12-04T10:26:33;12.60;;;9.50;;
9940;SDS011;5009;50.656;7.188;2023-12-04T10:28:59;11.23;;;8.83;;
9940;SDS011;5009;50.656;7.188;2023-12-04T10:31:26;13.40;;;9.60;;
9940;SDS011;5009;50.656;7.188;2023-12-04T10:33:52;12.40;;;8.77;;
9940;SDS011;5009;50.656;7.188;2023-12-04T10:36:17;11.63;;;8.47;;
9940;SDS011;5009;50.656;7.188;2023-12-04T10:38:44;10.90;;;9.23;;
9940;SDS011;5009;50.656;7.188;2023-12-04T10:41:12;9.93;;;8.57;;
9940;SDS011;5009;50.656;7.188;2023-12-04T10:43:46;10.70;;;8.27;;
9940;SDS011;5009;50.656;7.188;2023-12-04T10:46:14;12.07;;;8.87;;
9940;SDS011;5009;50.656;7.188;2023-12-04T10:48:41;9.80;;;8.57;;
9940;SDS011;5009;50.656;7.188;2023-12-04T10:51:09;9.97;;;8.97;;
9940;SDS011;5009;50.656;7.188;2023-12-04T10:53:37;11.67;;;9.07;;
9940;SDS011;5009;50.656;7.188;2023-12-04T10:56:08;11.87;;;8.97;;
9940;SDS011;5009;50.656;7.188;2023-12-04T10:58:36;10.50;;;9.27;;
9940;SDS011;5009;50.656;7.188;2023-12-04T11:01:04;10.53;;;9.03;;
9940;SDS011;5009;50.656;7.188;2023-12-04T11:03:39;12.67;;;8.90;;
9940;SDS011;5009;50.656;7.188;2023-12-04T11:06:09;11.67;;;9.10;;
9940;SDS011;5009;50.656;7.188;2023-12-04T11:08:37;11.63;;;9.47;;
9940;SDS011;5009;50.656;7.188;2023-12-04T11:11:05;11.53;;;9.40;;
9940;SDS011;5009;50.656;7.188;2023-12-04T11:13:40;11.30;;;8.37;;
9940;SDS011;5009;50.656;7.188;2023-12-04T11:16:08;10.00;;;8.27;;
9940;SDS011;5009;50.656;7.188;2023-12-04T11:19:13;11.00;;;9.07;;
9940;SDS011;5009;50.656;7.188;2023-12-04T11:21:49;11.40;;;9.10;;
9940;SDS011;5009;50.656;7.188;2023-12-04T11:24:16;12.00;;;9.13;;
9940;SDS011;5009;50.656;7.188;2023-12-04T11:26:43;11.00;;;9.43;;
9940;SDS011;5009;50.656;7.188;2023-12-04T11:29:09;14.70;;;9.80;;
9940;SDS011;5009;50.656;7.188;2023-12-04T11:31:37;10.37;;;8.70;;
9940;SDS011;5009;50.656;7.188;2023-12-04T11:34:03;11.90;;;9.43;;
9940;SDS011;5009;50.656;7.188;2023-12-04T11:36:29;13.90;;;10.27;;
9940;SDS011;5009;50.656;7.188;2023-12-04T11:38:55;11.03;;;9.27;;
9940;SDS011;5009;50.656;7.188;2023-12-04T11:41:24;12.40;;;9.30;;
9940;SDS011;5009;50.656;7.188;2023-12-04T11:43:51;11.27;;;9.33;;
9940;SDS011;5009;50.656;7.188;2023-12-04T11:46:21;12.70;;;9.97;;
9940;SDS011;5009;50.656;7.188;2023-12-04T11:48:48;11.90;;;9.37;;
9940;SDS011;5009;50.656;7.188;2023-12-04T11:51:15;13.47;;;10.17;;
9940;SDS011;5009;50.656;7.188;2023-12-04T11:54:16;10.03;;;8.67;;
9940;SDS011;5009;50.656;7.188;2023-12-04T11:59:34;12.20;;;9.30;;
9940;SDS011;5009;50.656;7.188;2023-12-04T12:02:03;10.63;;;9.03;;
9940;SDS011;5009;50.656;7.188;2023-12-04T12:04:36;12.23;;;9.47;;
9940;SDS011;5009;50.656;7.188;2023-12-04T12:07:03;10.77;;;8.80;;
9940;SDS011;5009;50.656;7.188;2023-12-04T12:09:30;11.00;;;8.77;;
9940;SDS011;5009;50.656;7.188;2023-12-04T12:12:02;11.27;;;8.87;;
9940;SDS011;5009;50.656;7.188;2023-12-04T12:14:29;9.97;;;8.90;;
9940;SDS011;5009;50.656;7.188;2023-12-04T12:16:55;10.37;;;8.67;;
9940;SDS011;5009;50.656;7.188;2023-12-04T12:19:22;12.60;;;9.57;;
9940;SDS011;5009;50.656;7.188;2023-12-04T12:21:48;14.27;;;8.90;;
9940;SDS011;5009;50.656;7.188;2023-12-04T12:24:16;10.90;;;9.30;;
9940;SDS011;5009;50.656;7.188;2023-12-04T12:26:42;10.63;;;9.10;;
9940;SDS011;5009;50.656;7.188;2023-12-04T12:29:10;12.60;;;9.63;;
9940;SDS011;5009;50.656;7.188;2023-12-04T12:31:36;10.60;;;8.67;;
9940;SDS011;5009;50.656;7.188;2023-12-04T12:34:02;10.60;;;8.93;;
9940;SDS011;5009;50.656;7.188;2023-12-04T12:36:28;10.73;;;8.80;;
9940;SDS011;5009;50.656;7.188;2023-12-04T12:38:54;9.53;;;8.23;;
9940;SDS011;5009;50.656;7.188;2023-12-04T12:41:19;10.57;;;8.50;;
9940;SDS011;5009;50.656;7.188;2023-12-04T12:43:45;10.90;;;8.43;;
9940;SDS011;5009;50.656;7.188;2023-12-04T12:46:12;9.33;;;8.10;;
9940;SDS011;5009;50.656;7.188;2023-12-04T12:48:38;9.37;;;8.40;;
9940;SDS011;5009;50.656;7.188;2023-12-04T12:51:04;8.90;;;8.00;;
9940;SDS011;5009;50.656;7.188;2023-12-04T12:53:33;9.27;;;8.33;;
9940;SDS011;5009;50.656;7.188;2023-12-04T12:56:00;10.53;;;9.07;;
9940;SDS011;5009;50.656;7.188;2023-12-04T12:58:28;11.00;;;8.20;;
9940;SDS011;5009;50.656;7.188;2023-12-04T13:00:54;9.97;;;8.67;;
9940;SDS011;5009;50.656;7.188;2023-12-04T13:03:21;10.53;;;8.20;;
9940;SDS011;5009;50.656;7.188;2023-12-04T13:05:47;9.77;;;8.63;;
9940;SDS011;5009;50.656;7.188;2023-12-04T13:08:12;12.33;;;9.57;;
9940;SDS011;5009;50.656;7.188;2023-12-04T13:10:39;10.83;;;8.53;;
9940;SDS011;5009;50.656;7.188;2023-12-04T13:13:09;9.37;;;8.20;;
9940;SDS011;5009;50.656;7.188;2023-12-04T13:15:36;9.17;;;7.90;;
9940;SDS011;5009;50.656;7.188;2023-12-04T13:18:01;8.60;;;7.70;;
9940;SDS011;5009;50.656;7.188;2023-12-04T13:20:27;8.33;;;7.53;;
9940;SDS011;5009;50.656;7.188;2023-12-04T13:22:53;9.57;;;8.03;;
9940;SDS011;5009;50.656;7.188;2023-12-04T13:25:18;8.73;;;7.83;;
9940;SDS011;5009;50.656;7.188;2023-12-04T13:27:45;9.27;;;7.90;;
9940;SDS011;5009;50.656;7.188;2023-12-04T13:30:11;12.20;;;8.90;;
9940;SDS011;5009;50.656;7.188;2023-12-04T13:32:37;8.73;;;7.83;;
9940;SDS011;5009;50.656;7.188;2023-12-04T13:35:03;8.63;;;7.63;;
9940;SDS011;5009;50.656;7.188;2023-12-04T13:37:33;9.60;;;7.47;;
9940;SDS011;5009;50.656;7.188;2023-12-04T13:40:01;8.93;;;7.17;;
9940;SDS011;5009;50.656;7.188;2023-12-04T13:42:31;9.17;;;7.90;;
9940;SDS011;5009;50.656;7.188;2023-12-04T13:45:16;8.10;;;7.27;;
9940;SDS011;5009;50.656;7.188;2023-12-04T13:47:41;7.73;;;6.93;;
9940;SDS011;5009;50.656;7.188;2023-12-04T13:50:08;8.67;;;7.47;;
9940;SDS011;5009;50.656;7.188;2023-12-04T13:52:34;7.80;;;7.00;;
9940;SDS011;5009;50.656;7.188;2023-12-04T13:55:00;7.90;;;7.10;;
9940;SDS011;5009;50.656;7.188;2023-12-04T13:57:33;8.17;;;6.70;;
9940;SDS011;5009;50.656;7.188;2023-12-04T14:00:08;8.10;;;6.93;;
9940;SDS011;5009;50.656;7.188;2023-12-04T14:02:34;8.17;;;7.30;;
9940;SDS011;5009;50.656;7.188;2023-12-04T14:05:02;8.13;;;6.80;;
9940;SDS011;5009;50.656;7.188;2023-12-04T14:07:28;8.20;;;7.40;;
9940;SDS011;5009;50.656;7.188;2023-12-04T14:09:53;8.70;;;7.80;;
9940;SDS011;5009;50.656;7.188;2023-12-04T14:12:19;10.67;;;7.40;;
9940;SDS011;5009;50.656;7.188;2023-12-04T14:14:45;8.17;;;7.37;;
9940;SDS011;5009;50.656;7.188;2023-12-04T14:17:10;10.37;;;7.23;;
9940;SDS011;5009;50.656;7.188;2023-12-04T14:19:37;9.00;;;7.17;;
9940;SDS011;5009;50.656;7.188;2023-12-04T14:22:04;9.03;;;7.63;;
9940;SDS011;5009;50.656;7.188;2023-12-04T14:24:30;10.00;;;7.60;;
9940;SDS011;5009;50.656;7.188;2023-12-04T14:26:55;8.60;;;7.37;;
9940;SDS011;5009;50.656;7.188;2023-12-04T14:29:21;7.57;;;6.77;;
9940;SDS011;5009;50.656;7.188;2023-12-04T14:31:47;7.63;;;6.83;;
9940;SDS011;5009;50.656;7.188;2023-12-04T14:34:12;7.40;;;6.63;;
9940;SDS011;5009;50.656;7.188;2023-12-04T14:36:38;8.43;;;6.80;;
9940;SDS011;5009;50.656;7.188;2023-12-04T14:39:04;7.77;;;6.97;;
9940;SDS011;5009;50.656;7.188;2023-12-04T14:41:30;8.10;;;7.30;;
9940;SDS011;5009;50.656;7.188;2023-12-04T14:43:56;8.03;;;7.00;;
9940;SDS011;5009;50.656;7.188;2023-12-04T14:46:22;7.43;;;6.67;;
9940;SDS011;5009;50.656;7.188;2023-12-04T14:48:48;7.20;;;6.50;;
9940;SDS011;5009;50.656;7.188;2023-12-04T14:51:14;7.43;;;6.63;;
9940;SDS011;5009;50.656;7.188;2023-12-04T14:53:40;7.07;;;6.37;;
9940;SDS011;5009;50.656;7.188;2023-12-04T14:56:15;7.70;;;6.63;;
9940;SDS011;5009;50.656;7.188;2023-12-04T14:59:00;7.60;;;6.80;;
9940;SDS011;5009;50.656;7.188;2023-12-04T15:01:31;7.87;;;7.10;;
9940;SDS011;5009;50.656;7.188;2023-12-04T15:04:15;8.77;;;6.77;;
9940;SDS011;5009;50.656;7.188;2023-12-04T15:07:01;7.70;;;6.97;;
9940;SDS011;5009;50.656;7.188;2023-12-04T15:09:53;7.43;;;6.70;;
9940;SDS011;5009;50.656;7.188;2023-12-04T15:12:36;8.07;;;7.27;;
9940;SDS011;5009;50.656;7.188;2023-12-04T15:15:02;8.67;;;7.53;;
9940;SDS011;5009;50.656;7.188;2023-12-04T15:17:50;13.43;;;10.37;;
9940;SDS011;5009;50.656;7.188;2023-12-04T15:20:20;8.00;;;7.20;;
9940;SDS011;5009;50.656;7.188;2023-12-04T15:22:52;10.17;;;8.47;;
9940;SDS011;5009;50.656;7.188;2023-12-04T15:25:17;11.77;;;8.73;;
9940;SDS011;5009;50.656;7.188;2023-12-04T15:27:44;9.07;;;8.17;;
9940;SDS011;5009;50.656;7.188;2023-12-04T15:30:09;8.80;;;7.43;;
9940;SDS011;5009;50.656;7.188;2023-12-04T15:32:37;7.93;;;7.20;;
9940;SDS011;5009;50.656;7.188;2023-12-04T15:35:03;9.03;;;7.57;;
9940;SDS011;5009;50.656;7.188;2023-12-04T15:37:29;9.30;;;7.90;;
9940;SDS011;5009;50.656;7.188;2023-12-04T15:39:55;9.07;;;7.73;;
9940;SDS011;5009;50.656;7.188;2023-12-04T15:42:20;8.13;;;7.33;;
9940;SDS011;5009;50.656;7.188;2023-12-04T15:44:46;7.37;;;6.67;;
9940;SDS011;5009;50.656;7.188;2023-12-04T15:47:12;9.57;;;7.80;;
9940;SDS011;5009;50.656;7.188;2023-12-04T15:49:37;8.67;;;7.77;;
9940;SDS011;5009;50.656;7.188;2023-12-04T15:52:03;8.13;;;7.33;;
9940;SDS011;5009;50.656;7.188;2023-12-04T15:54:29;9.03;;;7.90;;
9940;SDS011;5009;50.656;7.188;2023-12-04T15:56:57;8.40;;;7.50;;
9940;SDS011;5009;50.656;7.188;2023-12-04T15:59:22;9.97;;;8.13;;
9940;SDS011;5009;50.656;7.188;2023-12-04T16:01:48;8.87;;;7.97;;
9940;SDS011;5009;50.656;7.188;2023-12-04T16:04:13;8.80;;;7.80;;
9940;SDS011;5009;50.656;7.188;2023-12-04T16:06:39;8.40;;;7.50;;
9940;SDS011;5009;50.656;7.188;2023-12-04T16:09:04;8.13;;;7.27;;
9940;SDS011;5009;50.656;7.188;2023-12-04T16:11:30;10.20;;;9.20;;
9940;SDS011;5009;50.656;7.188;2023-12-04T16:13:56;14.43;;;13.03;;
9940;SDS011;5009;50.656;7.188;2023-12-04T16:16:21;10.17;;;8.10;;
9940;SDS011;5009;50.656;7.188;2023-12-04T16:18:47;10.07;;;8.67;;
9940;SDS011;5009;50.656;7.188;2023-12-04T16:21:14;8.93;;;8.03;;
9940;SDS011;5009;50.656;7.188;2023-12-04T16:23:39;10.57;;;9.57;;
9940;SDS011;5009;50.656;7.188;2023-12-04T16:26:06;8.73;;;7.80;;
9940;SDS011;5009;50.656;7.188;2023-12-04T16:28:31;13.93;;;12.30;;
9940;SDS011;5009;50.656;7.188;2023-12-04T16:30:57;10.00;;;8.63;;
9940;SDS011;5009;50.656;7.188;2023-12-04T16:33:23;9.23;;;7.60;;
9940;SDS011;5009;50.656;7.188;2023-12-04T16:35:48;8.57;;;7.77;;
9940;SDS011;5009;50.656;7.188;2023-12-04T16:38:14;8.73;;;7.63;;
9940;SDS011;5009;50.656;7.188;2023-12-04T16:40:40;9.07;;;8.07;;
9940;SDS011;5009;50.656;7.188;2023-12-04T16:43:05;9.03;;;8.07;;
9940;SDS011;5009;50.656;7.188;2023-12-04T16:45:31;9.40;;;8.03;;
9940;SDS011;5009;50.656;7.188;2023-12-04T16:47:57;8.50;;;7.53;;
9940;SDS011;5009;50.656;7.188;2023-12-04T16:50:22;8.03;;;7.23;;
9940;SDS011;5009;50.656;7.188;2023-12-04T16:52:51;8.40;;;7.60;;
9940;SDS011;5009;50.656;7.188;2023-12-04T16:55:17;8.47;;;7.67;;
9940;SDS011;5009;50.656;7.188;2023-12-04T16:57:43;9.23;;;7.90;;
9940;SDS011;5009;50.656;7.188;2023-12-04T17:00:09;8.43;;;7.53;;
9940;SDS011;5009;50.656;7.188;2023-12-04T17:02:36;8.53;;;7.40;;
9940;SDS011;5009;50.656;7.188;2023-12-04T17:05:02;8.80;;;7.90;;
9940;SDS011;5009;50.656;7.188;2023-12-04T17:07:29;9.10;;;8.13;;
9940;SDS011;5009;50.656;7.188;2023-12-04T17:09:55;8.63;;;7.73;;
9940;SDS011;5009;50.656;7.188;2023-12-04T17:12:21;8.30;;;7.40;;
9940;SDS011;5009;50.656;7.188;2023-12-04T17:14:46;12.13;;;9.07;;
9940;SDS011;5009;50.656;7.188;2023-12-04T17:17:12;11.37;;;8.23;;
9940;SDS011;5009;50.656;7.188;2023-12-04T17:19:37;8.77;;;7.87;;
9940;SDS011;5009;50.656;7.188;2023-12-04T17:22:44;10.37;;;7.97;;
9940;SDS011;5009;50.656;7.188;2023-12-04T17:25:12;9.37;;;8.27;;
9940;SDS011;5009;50.656;7.188;2023-12-04T17:27:38;9.33;;;8.17;;
9940;SDS011;5009;50.656;7.188;2023-12-04T17:30:03;8.80;;;8.00;;
9940;SDS011;5009;50.656;7.188;2023-12-04T17:32:30;9.70;;;7.87;;
9940;SDS011;5009;50.656;7.188;2023-12-04T17:34:56;8.43;;;7.63;;
9940;SDS011;5009;50.656;7.188;2023-12-04T17:37:22;8.30;;;7.50;;
9940;SDS011;5009;50.656;7.188;2023-12-04T17:39:47;9.53;;;8.53;;
9940;SDS011;5009;50.656;7.188;2023-12-04T17:42:13;8.83;;;7.93;;
9940;SDS011;5009;50.656;7.188;2023-12-04T17:44:39;9.13;;;8.13;;
9940;SDS011;5009;50.656;7.188;2023-12-04T17:47:06;10.30;;;8.07;;
9940;SDS011;5009;50.656;7.188;2023-12-04T17:49:33;9.60;;;8.70;;
9940;SDS011;5009;50.656;7.188;2023-12-04T17:52:00;10.87;;;8.73;;
9940;SDS011;5009;50.656;7.188;2023-12-04T17:54:26;15.07;;;13.57;;
9940;SDS011;5009;50.656;7.188;2023-12-04T17:56:51;17.40;;;15.80;;
9940;SDS011;5009;50.656;7.188;2023-12-04T17:59:17;10.13;;;9.13;;
9940;SDS011;5009;50.656;7.188;2023-12-04T18:02:44;11.57;;;10.37;;
9940;SDS011;5009;50.656;7.188;2023-12-04T18:05:13;10.23;;;8.93;;
9940;SDS011;5009;50.656;7.188;2023-12-04T18:07:42;10.67;;;9.57;;
9940;SDS011;5009;50.656;7.188;2023-12-04T18:10:08;10.30;;;9.20;;
9940;SDS011;5009;50.656;7.188;2023-12-04T18:12:34;10.00;;;9.00;;
9940;SDS011;5009;50.656;7.188;2023-12-04T18:14:59;12.37;;;10.23;;
9940;SDS011;5009;50.656;7.188;2023-12-04T18:17:25;10.00;;;8.63;;
9940;SDS011;5009;50.656;7.188;2023-12-04T18:19:52;10.80;;;9.70;;
9940;SDS011;5009;50.656;7.188;2023-12-04T18:22:18;11.43;;;10.33;;
9940;SDS011;5009;50.656;7.188;2023-12-04T18:24:44;11.40;;;10.17;;
9940;SDS011;5009;50.656;7.188;2023-12-04T18:27:10;11.00;;;9.90;;
9940;SDS011;5009;50.656;7.188;2023-12-04T18:29:36;10.50;;;9.30;;
9940;SDS011;5009;50.656;7.188;2023-12-04T18:32:02;10.80;;;9.73;;
9940;SDS011;5009;50.656;7.188;2023-12-04T18:34:29;11.27;;;9.97;;
9940;SDS011;5009;50.656;7.188;2023-12-04T18:36:56;10.23;;;9.23;;
9940;SDS011;5009;50.656;7.188;2023-12-04T18:39:27;10.17;;;9.17;;
9940;SDS011;5009;50.656;7.188;2023-12-04T18:41:56;11.30;;;10.10;;
9940;SDS011;5009;50.656;7.188;2023-12-04T18:44:22;12.33;;;10.47;;
9940;SDS011;5009;50.656;7.188;2023-12-04T18:46:48;10.97;;;9.87;;
9940;SDS011;5009;50.656;7.188;2023-12-04T18:49:20;11.50;;;9.93;;
9940;SDS011;5009;50.656;7.188;2023-12-04T18:51:46;11.37;;;9.97;;
9940;SDS011;5009;50.656;7.188;2023-12-04T18:54:12;35.30;;;20.60;;
9940;SDS011;5009;50.656;7.188;2023-12-04T18:56:38;11.30;;;10.07;;
9940;SDS011;5009;50.656;7.188;2023-12-04T18:59:03;10.97;;;9.80;;
9940;SDS011;5009;50.656;7.188;2023-12-04T19:01:29;12.43;;;10.87;;
9940;SDS011;5009;50.656;7.188;2023-12-04T19:03:54;12.40;;;10.73;;
9940;SDS011;5009;50.656;7.188;2023-12-04T19:06:20;11.60;;;10.40;;
9940;SDS011;5009;50.656;7.188;2023-12-04T19:08:46;11.37;;;10.27;;
9940;SDS011;5009;50.656;7.188;2023-12-04T19:11:11;13.27;;;10.47;;
9940;SDS011;5009;50.656;7.188;2023-12-04T19:13:38;11.57;;;9.53;;
9940;SDS011;5009;50.656;7.188;2023-12-04T19:16:04;11.47;;;10.30;;
9940;SDS011;5009;50.656;7.188;2023-12-04T19:18:29;12.10;;;10.70;;
9940;SDS011;5009;50.656;7.188;2023-12-04T19:20:55;11.57;;;10.37;;
9940;SDS011;5009;50.656;7.188;2023-12-04T19:23:21;11.73;;;10.53;;
9940;SDS011;5009;50.656;7.188;2023-12-04T19:25:47;12.03;;;10.40;;
9940;SDS011;5009;50.656;7.188;2023-12-04T19:28:12;10.87;;;9.77;;
9940;SDS011;5009;50.656;7.188;2023-12-04T19:30:38;11.77;;;10.33;;
9940;SDS011;5009;50.656;7.188;2023-12-04T19:33:04;11.07;;;9.97;;
9940;SDS011;5009;50.656;7.188;2023-12-04T19:35:29;11.63;;;10.43;;
9940;SDS011;5009;50.656;7.188;2023-12-04T19:37:55;10.90;;;9.80;;
9940;SDS011;5009;50.656;7.188;2023-12-04T19:40:21;11.23;;;10.03;;
9940;SDS011;5009;50.656;7.188;2023-12-04T19:42:47;11.20;;;10.10;;
9940;SDS011;5009;50.656;7.188;2023-12-04T19:45:12;10.63;;;9.53;;
9940;SDS011;5009;50.656;7.188;2023-12-04T19:47:38;10.57;;;9.57;;
9940;SDS011;5009;50.656;7.188;2023-12-04T19:50:04;12.07;;;10.43;;
9940;SDS011;5009;50.656;7.188;2023-12-04T19:52:31;10.40;;;9.40;;
9940;SDS011;5009;50.656;7.188;2023-12-04T19:54:57;11.03;;;9.80;;
9940;SDS011;5009;50.656;7.188;2023-12-04T19:57:22;11.70;;;10.50;;
9940;SDS011;5009;50.656;7.188;2023-12-04T19:59:49;10.93;;;9.83;;
9940;SDS011;5009;50.656;7.188;2023-12-04T20:02:15;11.00;;;9.90;;
9940;SDS011;5009;50.656;7.188;2023-12-04T20:04:40;12.10;;;10.37;;
9940;SDS011;5009;50.656;7.188;2023-12-04T20:07:07;11.13;;;9.97;;
9940;SDS011;5009;50.656;7.188;2023-12-04T20:09:33;11.67;;;9.73;;